Time;durP1;ratioP1;P1;durP2;ratioP2;P2;SDS_P1;SDS_P2;PMS_P1;PMS_P2;Temp;Humidity;BMP_temperature;BMP_pressure;BME280_temperature;BME280_humidity;BME280_pressure;Samples;Min_cycle;Max_cycle;Signal;HPM_P1;HPM_P2
2023/02/09 00:01:58;;;;;;;28.33;17.23;;;;;;;-4.38;74.70;96891.22;5041580;28;20228;-80
2023/02/09 00:04:24;;;;;;;27.93;15.93;;;;;;;-4.39;75.11;96894.63;5049084;28;20228;-81
2023/02/09 00:06:49;;;;;;;28.43;16.37;;;;;;;-4.40;74.75;96894.66;5047798;28;20191;-80
2023/02/09 00:09:14;;;;;;;31.40;17.33;;;;;;;-4.41;75.17;96900.59;5044798;28;20208;-80
2023/02/09 00:14:24;;;;;;;25.70;15.07;;;;;;;-4.45;75.41;96887.09;5049718;28;20194;-80
2023/02/09 00:16:50;;;;;;;30.57;16.40;;;;;;;-4.49;74.75;96890.56;5046031;28;20209;-80
2023/02/09 00:19:15;;;;;;;30.90;16.63;;;;;;;-4.52;75.13;96892.28;5040142;28;20720;-80
2023/02/09 00:21:41;;;;;;;27.63;15.97;;;;;;;-4.61;74.91;96888.19;5045061;28;20565;-80
2023/02/09 00:24:06;;;;;;;28.53;16.03;;;;;;;-4.61;74.98;96880.59;5047973;28;20669;-81
2023/02/09 00:26:33;;;;;;;29.13;17.20;;;;;;;-4.66;75.28;96888.28;5049069;28;20681;-79
2023/02/09 00:28:58;;;;;;;26.97;16.77;;;;;;;-4.68;75.67;96879.88;5051116;28;20186;-79
2023/02/09 00:31:24;;;;;;;29.83;17.30;;;;;;;-4.65;76.81;96877.28;5046549;28;20181;-80
2023/02/09 00:33:49;;;;;;;28.57;17.27;;;;;;;-4.68;76.10;96881.53;5053497;28;20217;-80
2023/02/09 00:36:14;;;;;;;29.60;16.33;;;;;;;-4.67;76.51;96884.09;5044444;28;20274;-80
2023/02/09 00:38:41;;;;;;;35.93;17.47;;;;;;;-4.75;77.12;96880.00;5048633;28;20209;-81
2023/02/09 00:41:06;;;;;;;28.23;16.00;;;;;;;-4.72;76.64;96874.88;5051824;28;20876;-80
2023/02/09 00:43:34;;;;;;;28.83;16.97;;;;;;;-4.81;77.27;96875.00;5052211;28;20214;-80
2023/02/09 00:45:59;;;;;;;26.60;16.77;;;;;;;-4.86;77.14;96875.91;5043575;28;20189;-81
2023/02/09 00:48:24;;;;;;;28.20;17.43;;;;;;;-4.85;78.46;96876.75;5050010;28;20185;-80
2023/02/09 00:50:51;;;;;;;28.93;17.57;;;;;;;-4.83;77.90;96881.78;5051574;28;20185;-79
2023/02/09 00:53:17;;;;;;;31.70;18.13;;;;;;;-4.79;77.75;96876.66;5043276;28;20221;-79
2023/02/09 00:55:42;;;;;;;28.37;16.83;;;;;;;-4.97;78.01;96870.16;5044477;28;20301;-80
2023/02/09 00:58:07;;;;;;;29.37;17.83;;;;;;;-4.91;78.55;96879.38;5052649;28;20217;-80
2023/02/09 01:00:33;;;;;;;32.37;17.07;;;;;;;-4.88;78.45;96871.72;5051495;28;20199;-80
2023/02/09 01:02:58;;;;;;;31.47;18.50;;;;;;;-4.88;78.19;96875.06;5050586;28;20209;-80
2023/02/09 01:05:24;;;;;;;30.47;17.80;;;;;;;-4.91;77.26;96875.13;5048358;28;20212;-80
2023/02/09 01:07:49;;;;;;;34.57;17.30;;;;;;;-4.91;77.92;96874.31;5039948;28;20266;-80
2023/02/09 01:10:14;;;;;;;30.10;16.47;;;;;;;-4.86;78.08;96882.66;5043213;28;20189;-80
2023/02/09 01:12:40;;;;;;;30.60;17.37;;;;;;;-4.90;78.04;96874.28;5049332;28;20209;-79
2023/02/09 01:15:06;;;;;;;32.67;17.30;;;;;;;-4.87;77.65;96874.22;5050758;28;20218;-79
2023/02/09 01:17:32;;;;;;;33.17;18.23;;;;;;;-4.94;77.56;96869.28;5053161;28;20204;-80
2023/02/09 01:19:57;;;;;;;29.20;16.97;;;;;;;-5.02;77.37;96874.47;5045136;28;20277;-80
2023/02/09 01:22:22;;;;;;;32.00;16.87;;;;;;;-5.10;77.90;96873.72;5046960;28;20309;-80
2023/02/09 01:24:48;;;;;;;38.17;18.33;;;;;;;-5.17;77.70;96877.19;5047648;28;20606;-80
2023/02/09 01:27:13;;;;;;;29.13;17.10;;;;;;;-5.21;78.24;96867.97;5043418;28;20193;-80
2023/02/09 01:29:38;;;;;;;29.70;17.33;;;;;;;-5.26;79.00;96873.09;5053458;28;20204;-80
2023/02/09 01:32:04;;;;;;;33.07;18.23;;;;;;;-5.28;78.91;96871.44;5047493;28;20206;-80
2023/02/09 01:34:29;;;;;;;29.67;17.17;;;;;;;-5.31;79.54;96863.84;5053696;28;20197;-81
2023/02/09 01:36:55;;;;;;;35.67;18.40;;;;;;;-5.37;79.43;96869.03;5046680;28;20206;-80
2023/02/09 01:39:20;;;;;;;29.67;16.90;;;;;;;-5.39;78.88;96847.94;5050064;28;20198;-80
2023/02/09 01:41:45;;;;;;;34.57;19.63;;;;;;;-5.39;79.94;96853.81;5049192;28;20206;-80
2023/02/09 01:44:11;;;;;;;33.43;18.10;;;;;;;-5.37;79.53;96846.25;5042384;28;20190;-81
2023/02/09 01:46:36;;;;;;;33.30;18.33;;;;;;;-5.41;79.48;96848.78;5045106;28;20269;-80
2023/02/09 01:49:08;;;;;;;36.03;19.27;;;;;;;-5.41;79.43;96858.09;5050957;28;20195;-81
2023/02/09 01:51:36;;;;;;;30.63;18.43;;;;;;;-5.44;79.72;96863.19;5048709;28;20201;-80
2023/02/09 01:54:11;;;;;;;35.10;18.73;;;;;;;-5.46;80.07;96854.78;5043259;28;20187;-81
2023/02/09 01:56:38;;;;;;;35.40;20.50;;;;;;;-5.52;81.79;96853.16;5045484;28;20205;-81
2023/02/09 01:59:03;;;;;;;36.17;19.57;;;;;;;-5.52;82.42;96844.72;5046710;28;20199;-80
2023/02/09 02:01:29;;;;;;;32.47;20.20;;;;;;;-5.42;81.96;96844.59;5052262;28;20760;-80
2023/02/09 02:03:54;;;;;;;37.27;20.63;;;;;;;-5.25;81.23;96843.53;5044888;28;20185;-80
2023/02/09 02:06:20;;;;;;;36.93;20.00;;;;;;;-5.15;80.41;96850.97;5046782;28;20220;-81
2023/02/09 02:08:56;;;;;;;38.10;19.67;;;;;;;-5.11;79.49;96840.81;5046860;28;20201;-80
2023/02/09 02:11:22;;;;;;;34.43;20.30;;;;;;;-5.15;79.68;96842.53;5043829;28;20653;-81
2023/02/09 02:13:48;;;;;;;31.07;18.40;;;;;;;-5.13;80.53;96840.81;5045266;28;20197;-80
2023/02/09 02:16:19;;;;;;;35.23;20.03;;;;;;;-5.08;80.15;96838.22;5047322;28;20697;-80
2023/02/09 02:19:05;;;;;;;35.27;20.30;;;;;;;-5.14;80.06;96834.91;5045596;28;20186;-81
2023/02/09 02:21:51;;;;;;;37.43;19.27;;;;;;;-5.05;80.03;96833.94;5046908;28;20280;-81
2023/02/09 02:24:45;;;;;;;34.60;18.70;;;;;;;-5.05;80.53;96833.94;5049325;28;20181;-81
2023/02/09 02:27:29;;;;;;;35.27;19.57;;;;;;;-5.04;80.92;96833.09;5048113;28;20193;-80
2023/02/09 02:30:47;;;;;;;34.57;19.83;;;;;;;-5.09;81.07;96839.94;5044392;28;20246;-80
2023/02/09 02:33:28;;;;;;;32.43;18.53;;;;;;;-5.11;80.76;96840.81;5016076;28;20215;-80
2023/02/09 02:36:27;;;;;;;35.30;19.40;;;;;;;-5.07;80.47;96842.44;5018544;28;20224;-81
2023/02/09 02:39:10;;;;;;;32.90;19.07;;;;;;;-5.05;80.04;96840.72;5017049;28;20201;-80
2023/02/09 02:44:28;;;;;;;37.07;20.17;;;;;;;-5.07;80.92;96838.22;5037554;28;20181;-81
2023/02/09 02:46:58;;;;;;;33.50;20.90;;;;;;;-5.08;80.83;96831.47;5035838;28;20192;-80
2023/02/09 02:49:26;;;;;;;36.70;21.97;;;;;;;-5.00;80.63;96832.19;5035804;28;20258;-80
2023/02/09 02:51:55;;;;;;;37.53;21.40;;;;;;;-4.92;80.43;96830.41;5035189;28;20213;-81
2023/02/09 02:54:29;;;;;;;37.67;20.93;;;;;;;-4.90;80.28;96831.19;5035916;28;20209;-81
2023/02/09 02:57:04;;;;;;;35.67;20.63;;;;;;;-4.89;80.11;96832.03;5035452;28;20206;-80
2023/02/09 02:59:32;;;;;;;38.00;20.67;;;;;;;-4.90;80.82;96821.06;5037091;28;20171;-81
2023/02/09 03:02:03;;;;;;;38.20;23.00;;;;;;;-4.79;80.87;96825.13;5032226;28;20221;-80
2023/02/09 03:04:29;;;;;;;37.77;21.53;;;;;;;-4.88;80.30;96819.34;5030577;28;20707;-81
2023/02/09 03:06:54;;;;;;;35.23;21.40;;;;;;;-4.75;80.41;96819.16;5046040;28;20208;-81
2023/02/09 03:09:20;;;;;;;37.30;21.43;;;;;;;-4.78;80.51;96819.19;5062617;28;20221;-81
2023/02/09 03:11:48;;;;;;;43.87;22.60;;;;;;;-4.75;80.65;96822.53;5047706;28;20228;-81
2023/02/09 03:14:44;;;;;;;38.27;21.50;;;;;;;-4.72;80.29;96819.09;5057199;28;20197;-81
2023/02/09 03:17:27;;;;;;;37.40;20.87;;;;;;;-4.75;79.71;96824.22;5060410;28;20189;-80
2023/02/09 03:20:19;;;;;;;35.37;20.73;;;;;;;-4.87;79.18;96810.88;5048938;28;20186;-81
2023/02/09 03:22:47;;;;;;;33.33;20.13;;;;;;;-4.93;80.29;96816.06;5040194;28;20218;-80
2023/02/09 03:25:21;;;;;;;38.07;20.77;;;;;;;-4.97;80.21;96819.47;5053423;28;20203;-81
2023/02/09 03:28:00;;;;;;;37.57;20.17;;;;;;;-5.04;80.07;96820.41;5059338;28;20225;-80
2023/02/09 03:30:26;;;;;;;34.07;19.93;;;;;;;-5.10;80.97;96815.47;5049731;28;20680;-81
2023/02/09 03:32:55;;;;;;;39.07;21.43;;;;;;;-5.10;80.28;96820.53;5055922;28;20225;-81
2023/02/09 03:35:22;;;;;;;37.57;20.70;;;;;;;-5.13;79.56;96823.91;5048233;28;20198;-82
2023/02/09 03:37:48;;;;;;;37.60;21.43;;;;;;;-5.16;80.46;96823.16;5047575;28;20185;-81
2023/02/09 03:40:13;;;;;;;34.17;20.53;;;;;;;-5.21;80.55;96815.63;5054858;28;20664;-82
2023/02/09 03:42:38;;;;;;;38.60;21.40;;;;;;;-5.23;80.27;96816.47;5050370;28;20229;-80
2023/02/09 03:45:06;;;;;;;34.53;20.27;;;;;;;-5.16;80.52;96818.91;5059213;28;20185;-80
2023/02/09 03:47:32;;;;;;;36.17;22.80;;;;;;;-5.17;80.21;96813.88;5059827;28;20232;-80
2023/02/09 03:49:58;;;;;;;36.17;20.30;;;;;;;-5.14;80.76;96818.88;5053483;28;20186;-80
2023/02/09 03:52:23;;;;;;;37.13;20.17;;;;;;;-5.13;81.17;96818.03;5047156;28;20238;-81
2023/02/09 03:54:48;;;;;;;39.93;21.63;;;;;;;-5.10;81.56;96822.22;5046109;28;20573;-80
2023/02/09 03:57:14;;;;;;;37.07;21.17;;;;;;;-5.13;81.15;96815.50;5053790;28;20605;-81
2023/02/09 03:59:39;;;;;;;35.13;20.63;;;;;;;-5.11;80.40;96811.25;5042307;28;20182;-82
2023/02/09 04:02:06;;;;;;;37.83;21.37;;;;;;;-5.12;80.82;96817.19;5057710;28;20209;-81
2023/02/09 04:04:32;;;;;;;36.73;20.17;;;;;;;-5.23;80.12;96817.31;5050388;28;20296;-81
2023/02/09 04:06:57;;;;;;;35.03;19.60;;;;;;;-5.30;80.23;96822.50;5038577;28;20197;-81
2023/02/09 04:09:23;;;;;;;36.10;21.40;;;;;;;-5.34;80.64;96809.03;5053688;28;20186;-80
2023/02/09 04:11:48;;;;;;;36.53;20.43;;;;;;;-5.33;81.58;96812.41;5051267;28;20210;-81
2023/02/09 04:14:14;;;;;;;35.87;21.40;;;;;;;-5.33;81.40;96817.47;5055198;28;20280;-79
2023/02/09 04:16:39;;;;;;;35.67;20.57;;;;;;;-5.39;81.73;96809.94;5060982;28;20204;-80
2023/02/09 04:19:04;;;;;;;38.70;21.23;;;;;;;-5.43;81.27;96815.06;5060098;28;20674;-79
2023/02/09 04:21:30;;;;;;;36.20;20.90;;;;;;;-5.49;81.92;96810.06;5033884;28;20209;-81
2023/02/09 04:23:55;;;;;;;33.43;20.00;;;;;;;-5.46;81.07;96815.13;5056419;28;20643;-80
2023/02/09 04:26:21;;;;;;;39.13;20.60;;;;;;;-5.47;82.51;96817.69;5044652;28;20189;-80
2023/02/09 04:28:46;;;;;;;39.13;21.47;;;;;;;-5.45;82.37;96821.03;5048364;28;20190;-80
2023/02/09 04:31:12;;;;;;;38.87;21.97;;;;;;;-5.50;82.82;96826.13;5058042;28;20188;-80
2023/02/09 04:33:37;;;;;;;39.93;21.80;;;;;;;-5.45;82.53;96826.09;5065603;28;20293;-83
2023/02/09 04:36:03;;;;;;;34.93;20.10;;;;;;;-5.52;81.11;96827.84;5057358;28;20241;-82
2023/02/09 04:38:28;;;;;;;34.23;20.63;;;;;;;-5.58;82.56;96824.53;5050024;28;20209;-82
2023/02/09 04:40:55;;;;;;;36.43;20.23;;;;;;;-5.60;81.98;96816.97;5056670;28;20253;-81
2023/02/09 04:43:20;;;;;;;33.23;20.47;;;;;;;-5.61;81.72;96815.31;5050983;28;20755;-81
2023/02/09 04:45:46;;;;;;;34.20;20.30;;;;;;;-5.59;82.32;96820.34;5047364;28;20194;-81
2023/02/09 04:48:14;;;;;;;34.60;20.30;;;;;;;-5.59;82.14;96818.66;5054865;28;20280;-80
2023/02/09 04:50:39;;;;;;;33.13;19.87;;;;;;;-5.63;81.29;96813.66;5054873;28;20198;-81
2023/02/09 04:53:05;;;;;;;36.40;19.57;;;;;;;-5.70;81.19;96815.44;5048341;28;20218;-80
2023/02/09 04:55:30;;;;;;;39.03;20.07;;;;;;;-5.76;82.62;96825.63;5053315;28;20210;-80
2023/02/09 05:00:39;;;;;;;35.60;20.77;;;;;;;-5.72;82.18;96820.50;5050254;28;20273;-79
2023/02/09 05:03:05;;;;;;;37.70;20.93;;;;;;;-5.77;82.30;96824.78;5044888;28;20681;-79
2023/02/09 05:05:30;;;;;;;43.43;24.97;;;;;;;-5.77;82.99;96818.88;5054807;28;20557;-81
2023/02/09 05:07:55;;;;;;;41.63;24.67;;;;;;;-5.77;82.16;96808.75;5051588;28;20193;-81
2023/02/09 05:10:21;;;;;;;42.33;22.43;;;;;;;-5.81;82.43;96813.03;5047320;28;20192;-80
2023/02/09 05:12:46;;;;;;;39.43;21.00;;;;;;;-5.85;82.14;96810.53;5052212;28;20316;-81
2023/02/09 05:15:12;;;;;;;33.93;20.97;;;;;;;-5.85;81.32;96815.59;5055502;28;20217;-80
2023/02/09 05:17:37;;;;;;;38.93;21.40;;;;;;;-5.88;82.61;96818.19;5056003;28;20196;-79
2023/02/09 05:20:03;;;;;;;39.90;21.90;;;;;;;-5.88;85.47;96813.13;5042711;28;20197;-82
2023/02/09 05:22:28;;;;;;;38.90;22.10;;;;;;;-5.82;83.33;96811.34;5046610;28;20216;-79
2023/02/09 05:24:54;;;;;;;37.57;22.83;;;;;;;-5.85;83.06;96815.59;5054002;28;20235;-79
2023/02/09 05:27:19;;;;;;;39.73;21.50;;;;;;;-5.84;83.48;96817.28;5041875;28;20204;-82
2023/02/09 05:29:44;;;;;;;44.23;25.63;;;;;;;-5.84;84.36;96817.28;5054956;28;20184;-80
2023/02/09 05:32:10;;;;;;;53.70;27.93;;;;;;;-5.91;85.83;96821.63;5048645;28;20208;-81
2023/02/09 05:34:36;;;;;;;36.57;20.77;;;;;;;-5.86;85.86;96829.94;5052697;28;20624;-79
2023/02/09 05:37:01;;;;;;;37.00;21.50;;;;;;;-5.89;84.79;96831.69;5056742;28;20201;-79
2023/02/09 05:39:26;;;;;;;42.10;22.73;;;;;;;-5.78;84.25;96828.16;5052458;28;20209;-79
2023/02/09 05:44:35;;;;;;;48.23;25.87;;;;;;;-5.90;83.55;96833.38;5041299;28;20263;-80
2023/02/09 05:47:01;;;;;;;46.47;26.97;;;;;;;-5.94;83.56;96828.38;5043966;28;20182;-82
2023/02/09 05:49:26;;;;;;;43.77;24.57;;;;;;;-5.98;83.31;96824.22;5050043;28;20193;-80
2023/02/09 05:51:52;;;;;;;43.80;24.20;;;;;;;-6.04;83.43;96820.91;5042451;28;20214;-80
2023/02/09 05:54:17;;;;;;;41.77;21.00;;;;;;;-6.11;83.97;96820.97;5056779;28;20197;-79
2023/02/09 05:56:43;;;;;;;37.67;21.00;;;;;;;-6.10;83.69;96823.50;5050814;28;20267;-81
2023/02/09 05:59:08;;;;;;;37.77;20.40;;;;;;;-6.19;83.89;96823.59;5046014;28;20205;-79
2023/02/09 06:01:33;;;;;;;38.53;22.13;;;;;;;-6.19;83.95;96827.81;5040278;28;20193;-81
2023/02/09 06:03:58;;;;;;;40.00;22.27;;;;;;;-6.17;83.89;96832.03;5043098;28;20182;-80
2023/02/09 06:06:24;;;;;;;39.63;22.83;;;;;;;-6.19;83.84;96833.69;5050180;28;20220;-81
2023/02/09 06:08:49;;;;;;;39.63;26.97;;;;;;;-6.24;84.22;96837.97;5053901;28;20190;-79
2023/02/09 06:11:14;;;;;;;41.23;24.53;;;;;;;-6.22;84.29;96845.53;5058913;28;20185;-79
2023/02/09 06:13:40;;;;;;;38.17;20.20;;;;;;;-6.36;86.07;96848.19;5055540;28;20234;-78
2023/02/09 06:16:05;;;;;;;37.50;21.13;;;;;;;-6.25;86.82;96854.00;5047750;28;20786;-79
2023/02/09 06:18:31;;;;;;;36.73;20.80;;;;;;;-6.15;85.65;96853.06;5040536;28;20186;-80
2023/02/09 06:20:57;;;;;;;41.63;22.70;;;;;;;-6.16;84.76;96851.38;5055623;28;20999;-80
2023/02/09 06:23:22;;;;;;;45.47;25.17;;;;;;;-6.20;85.72;96851.41;5051351;28;20568;-82
2023/02/09 06:25:51;;;;;;;40.13;23.23;;;;;;;-6.15;84.84;96849.69;5053474;28;20272;-80
2023/02/09 06:28:17;;;;;;;40.97;23.33;;;;;;;-6.17;84.35;96853.94;5058015;28;20533;-79
2023/02/09 06:30:42;;;;;;;35.40;19.70;;;;;;;-6.15;84.39;96858.13;5052258;28;20281;-80
2023/02/09 06:33:07;;;;;;;33.20;20.30;;;;;;;-6.16;84.19;96851.38;5045239;28;20204;-79
2023/02/09 06:35:33;;;;;;;37.20;21.00;;;;;;;-6.23;83.76;96859.03;5039468;28;20229;-79
2023/02/09 06:37:58;;;;;;;39.67;19.63;;;;;;;-6.27;84.38;96853.19;5056075;28;20196;-79
2023/02/09 06:40:23;;;;;;;39.90;20.37;;;;;;;-6.26;85.04;96864.13;5056054;28;20673;-81
2023/02/09 06:42:49;;;;;;;37.60;20.07;;;;;;;-6.30;84.20;96879.31;5055842;28;20208;-79
2023/02/09 06:45:16;;;;;;;36.47;21.30;;;;;;;-6.41;85.15;96875.22;5038606;28;20182;-81
2023/02/09 06:47:45;;;;;;;40.60;22.53;;;;;;;-6.32;85.58;96882.72;5028507;28;20181;-80
2023/02/09 06:50:12;;;;;;;38.87;22.27;;;;;;;-6.33;86.14;96881.88;5051377;28;20659;-80
2023/02/09 06:52:37;;;;;;;40.30;22.73;;;;;;;-6.34;86.44;96881.91;5057808;28;20200;-81
2023/02/09 06:55:03;;;;;;;40.73;24.07;;;;;;;-6.22;85.26;96880.94;5052139;28;20189;-79
2023/02/09 06:57:29;;;;;;;46.57;25.23;;;;;;;-6.15;84.76;96873.28;5046703;28;20188;-80
2023/02/09 06:59:54;;;;;;;39.73;23.73;;;;;;;-6.14;84.41;96864.84;5041247;28;20192;-81
2023/02/09 07:02:20;;;;;;;40.10;22.80;;;;;;;-6.07;84.25;96876.59;5039345;28;20212;-81
2023/02/09 07:04:45;;;;;;;37.43;20.83;;;;;;;-6.11;82.90;96874.09;5054684;28;20188;-80
2023/02/09 07:07:10;;;;;;;36.67;20.30;;;;;;;-6.12;82.91;96880.84;5051860;28;20189;-80
2023/02/09 07:09:36;;;;;;;35.77;20.87;;;;;;;-6.11;84.23;96887.56;5056687;28;20177;-80
2023/02/09 07:12:01;;;;;;;37.07;19.50;;;;;;;-6.16;84.86;96886.78;5054011;28;20675;-79
2023/02/09 07:14:26;;;;;;;39.20;20.73;;;;;;;-5.99;84.99;96886.63;5047747;28;20193;-81
2023/02/09 07:16:52;;;;;;;35.60;19.30;;;;;;;-5.86;83.74;96884.75;5043677;28;20260;-81
2023/02/09 07:19:17;;;;;;;36.33;21.03;;;;;;;-5.80;83.15;96892.31;5038061;28;20772;-80
2023/02/09 07:21:42;;;;;;;33.50;19.73;;;;;;;-5.76;83.69;96881.28;5045117;28;20232;-79
2023/02/09 07:24:08;;;;;;;31.70;18.97;;;;;;;-5.73;82.86;96886.31;5045452;28;20531;-81
2023/02/09 07:26:33;;;;;;;32.30;19.70;;;;;;;-5.71;82.64;96897.25;5052837;28;20273;-80
2023/02/09 07:28:59;;;;;;;39.27;20.87;;;;;;;-5.60;82.76;96897.97;5051005;28;20190;-80
2023/02/09 07:31:25;;;;;;;34.63;19.90;;;;;;;-5.53;82.87;96892.00;5043811;28;20177;-80
2023/02/09 07:33:55;;;;;;;35.50;20.17;;;;;;;-5.58;83.23;96903.00;5054965;28;20200;-79
2023/02/09 07:36:20;;;;;;;35.53;19.60;;;;;;;-5.36;82.39;96896.84;5051804;28;20208;-79
2023/02/09 07:38:46;;;;;;;32.83;20.27;;;;;;;-5.23;81.92;96905.13;5031588;28;20201;-79
2023/02/09 07:41:19;;;;;;;35.20;19.33;;;;;;;-5.14;81.19;96907.53;5045097;28;20182;-79
2023/02/09 07:43:45;;;;;;;33.57;18.97;;;;;;;-5.08;81.39;96909.16;5056054;28;20205;-79
2023/02/09 07:46:13;;;;;;;36.43;19.00;;;;;;;-4.98;81.61;96908.19;5037498;28;20178;-80
2023/02/09 07:48:38;;;;;;;30.57;16.90;;;;;;;-4.88;81.27;96909.72;5046258;28;20185;-81
2023/02/09 07:51:04;;;;;;;29.93;17.83;;;;;;;-4.75;80.67;96903.63;5040792;28;20189;-81
2023/02/09 07:53:31;;;;;;;34.40;18.03;;;;;;;-4.68;79.63;96909.44;5040503;28;20206;-81
2023/02/09 07:55:56;;;;;;;31.50;17.23;;;;;;;-4.56;79.92;96904.19;5046684;28;20278;-80
2023/02/09 07:58:21;;;;;;;32.23;17.50;;;;;;;-4.50;79.73;96905.81;5059622;28;20212;-80
2023/02/09 08:00:48;;;;;;;35.10;18.27;;;;;;;-4.43;79.00;96914.97;5067118;28;20653;-80
2023/02/09 08:03:15;;;;;;;34.37;18.40;;;;;;;-4.34;79.02;96915.66;5055778;28;20229;-82
2023/02/09 08:06:17;;;;;;;35.27;18.67;;;;;;;-4.21;79.10;96921.38;5030273;28;20188;-80
2023/02/09 08:08:46;;;;;;;34.67;17.77;;;;;;;-4.12;79.18;96918.69;5062526;28;20200;-79
2023/02/09 08:11:12;;;;;;;27.00;16.17;;;;;;;-3.99;78.53;96921.84;5044822;28;20169;-80
2023/02/09 08:13:40;;;;;;;53.17;19.10;;;;;;;-3.89;77.73;96923.38;5053857;28;20299;-81
2023/02/09 08:16:09;;;;;;;41.13;17.77;;;;;;;-3.82;77.16;96921.56;5054842;28;20197;-80
2023/02/09 08:18:47;;;;;;;32.17;17.63;;;;;;;-3.68;77.06;96921.31;5061001;28;20654;-81
2023/02/09 08:21:14;;;;;;;28.73;17.20;;;;;;;-3.59;76.89;96928.78;5055966;28;20181;-81
2023/02/09 08:23:40;;;;;;;28.30;16.07;;;;;;;-3.46;77.06;96927.66;5049782;28;20199;-80
2023/02/09 08:26:08;;;;;;;29.60;16.40;;;;;;;-3.37;76.55;96919.88;5040490;28;20175;-82
2023/02/09 08:28:35;;;;;;;32.30;15.97;;;;;;;-3.27;76.32;96917.97;5041601;28;20223;-82
2023/02/09 08:31:00;;;;;;;31.53;15.93;;;;;;;-3.14;75.82;96917.72;5048933;28;20759;-82
2023/02/09 08:33:26;;;;;;;29.00;16.00;;;;;;;-3.08;74.95;96921.84;5040327;28;20213;-81
2023/02/09 08:35:51;;;;;;;28.37;16.30;;;;;;;-2.99;74.03;96918.28;5037850;28;20214;-81
2023/02/09 08:38:19;;;;;;;28.43;16.10;;;;;;;-2.84;74.06;96917.94;5043022;28;20193;-81
2023/02/09 08:40:45;;;;;;;31.87;17.13;;;;;;;-2.79;73.75;96916.13;5059302;28;20209;-81
2023/02/09 08:43:11;;;;;;;29.03;15.97;;;;;;;-2.69;72.75;96914.22;5038445;28;20206;-82
2023/02/09 08:45:38;;;;;;;27.20;15.63;;;;;;;-2.66;71.17;96925.16;5050325;28;20178;-80
2023/02/09 08:48:05;;;;;;;28.57;14.43;;;;;;;-2.50;70.84;96919.72;5049753;28;20174;-81
2023/02/09 08:50:31;;;;;;;28.43;15.70;;;;;;;-2.42;69.48;96925.47;5044975;28;20189;-83
2023/02/09 08:52:56;;;;;;;27.60;16.97;;;;;;;-2.31;68.39;96931.13;5040756;28;20197;-79
2023/02/09 08:55:22;;;;;;;28.53;16.83;;;;;;;-2.23;67.69;96928.41;5052219;28;20273;-79
2023/02/09 08:57:47;;;;;;;32.10;17.20;;;;;;;-2.15;68.30;96937.53;5042842;28;20257;-80
2023/02/09 09:00:13;;;;;;;33.10;18.40;;;;;;;-1.96;68.99;96932.00;5040056;28;20208;-82
2023/02/09 09:02:39;;;;;;;34.23;20.10;;;;;;;-1.89;69.28;96930.97;5042803;28;20964;-79
2023/02/09 09:05:04;;;;;;;36.93;21.57;;;;;;;-1.82;70.19;96928.25;5049187;28;20277;-78
2023/02/09 09:07:30;;;;;;;35.03;19.83;;;;;;;-1.72;69.99;96927.13;5054544;28;20224;-79
2023/02/09 09:09:55;;;;;;;33.47;18.80;;;;;;;-1.67;69.60;96929.56;5040885;28;20772;-79
2023/02/09 09:12:20;;;;;;;34.70;21.00;;;;;;;-1.64;68.97;96929.50;5048048;28;20682;-79
2023/02/09 09:14:46;;;;;;;38.57;19.77;;;;;;;-1.67;66.90;96937.22;5048867;28;20194;-79
2023/02/09 09:17:11;;;;;;;37.33;20.37;;;;;;;-1.42;66.35;96934.84;5041810;28;20207;-79
2023/02/09 09:19:37;;;;;;;29.53;18.33;;;;;;;-1.44;66.78;96934.88;5046280;28;20191;-78
2023/02/09 09:22:02;;;;;;;32.33;17.70;;;;;;;-1.52;65.99;96931.69;5050609;28;20206;-80
2023/02/09 09:24:31;;;;;;;35.40;18.00;;;;;;;-1.24;65.70;96944.53;5058078;28;20188;-80
2023/02/09 09:26:56;;;;;;;32.73;20.23;;;;;;;-1.00;65.39;96927.72;5061394;28;20170;-79
2023/02/09 09:29:22;;;;;;;32.20;17.77;;;;;;;-1.03;65.04;96938.03;5055923;28;20199;-79
2023/02/09 09:31:48;;;;;;;29.93;18.37;;;;;;;-1.05;65.62;96939.78;5035220;28;20215;-78
2023/02/09 09:34:13;;;;;;;39.67;21.90;;;;;;;-1.02;64.83;96947.34;5046023;28;20183;-79
2023/02/09 09:36:38;;;;;;;29.90;17.57;;;;;;;-0.77;63.74;96954.28;5027394;28;20586;-79
2023/02/09 09:39:04;;;;;;;40.97;22.40;;;;;;;-0.81;63.58;96952.69;5057562;28;20196;-79
2023/02/09 09:41:32;;;;;;;28.47;17.97;;;;;;;-0.89;64.56;96953.75;5056708;28;20191;-79
2023/02/09 09:43:57;;;;;;;29.87;17.87;;;;;;;-0.76;63.69;96949.13;5052106;28;20903;-80
2023/02/09 09:46:35;;;;;;;25.17;15.70;;;;;;;-0.67;63.73;96948.88;5047034;28;20186;-79
2023/02/09 09:49:02;;;;;;;26.20;16.43;;;;;;;-0.66;62.77;96962.47;5037616;28;20188;-78
2023/02/09 09:51:38;;;;;;;26.97;16.50;;;;;;;-0.64;62.39;96966.63;5058791;28;20212;-80
2023/02/09 09:54:06;;;;;;;27.40;16.67;;;;;;;-0.82;62.70;96966.31;5058483;28;20193;-80
2023/02/09 09:56:32;;;;;;;26.33;16.10;;;;;;;-0.59;63.40;96967.34;5050781;28;20214;-81
2023/02/09 09:58:58;;;;;;;27.27;16.97;;;;;;;-0.58;62.10;96970.72;5049899;28;20208;-80
2023/02/09 10:01:24;;;;;;;32.77;17.33;;;;;;;-0.58;62.53;96978.38;5040529;28;20256;-81
2023/02/09 10:03:49;;;;;;;26.10;16.53;;;;;;;-0.57;62.71;96978.34;5047719;28;20219;-80
2023/02/09 10:06:17;;;;;;;30.10;15.60;;;;;;;-0.40;62.40;96972.72;5051956;28;20192;-85
2023/02/09 10:08:49;;;;;;;27.83;16.43;;;;;;;-0.18;61.96;96974.59;5041894;28;20272;-80
2023/02/09 10:11:16;;;;;;;27.33;17.13;;;;;;;-0.30;61.56;96973.28;5057536;28;20204;-82
2023/02/09 10:13:51;;;;;;;28.53;16.57;;;;;;;-0.11;61.17;96978.66;5049758;28;20205;-80
2023/02/09 10:16:24;;;;;;;27.87;15.87;;;;;;;-0.01;61.08;96980.88;5044237;28;20281;-80
2023/02/09 10:18:56;;;;;;;34.67;16.97;;;;;;;-0.02;60.90;96973.25;5059569;28;20185;-79
2023/02/09 10:21:27;;;;;;;30.63;16.33;;;;;;;-0.27;60.96;96973.19;5045648;28;20189;-80
2023/02/09 10:23:59;;;;;;;28.83;17.23;;;;;;;-0.12;61.57;96970.16;5054787;28;20299;-82
2023/02/09 10:26:27;;;;;;;32.80;17.47;;;;;;;0.09;59.92;96973.78;5057155;28;20181;-81
2023/02/09 10:28:57;;;;;;;26.03;15.83;;;;;;;0.22;60.35;96975.03;5052348;28;20192;-81
2023/02/09 10:31:25;;;;;;;27.83;16.13;;;;;;;0.20;60.34;96971.69;5033995;28;20188;-81
2023/02/09 10:33:56;;;;;;;28.47;16.27;;;;;;;0.22;60.42;96980.13;5056117;28;20185;-80
2023/02/09 10:36:26;;;;;;;29.37;16.47;;;;;;;0.26;59.81;96976.59;5039439;28;20216;-80
2023/02/09 10:39:02;;;;;;;26.50;16.20;;;;;;;0.31;59.75;96973.88;5044887;28;20194;-81
2023/02/09 10:41:28;;;;;;;26.30;16.53;;;;;;;0.34;59.80;96973.78;5047868;28;20287;-82
2023/02/09 10:43:53;;;;;;;26.07;16.13;;;;;;;0.45;60.00;96976.00;5053740;28;20182;-80
2023/02/09 10:46:19;;;;;;;28.10;17.27;;;;;;;0.37;60.37;96977.97;5053758;28;20494;-83
2023/02/09 10:48:45;;;;;;;25.80;16.73;;;;;;;0.34;60.28;96971.22;5047840;28;20181;-78
2023/02/09 10:51:15;;;;;;;29.50;17.80;;;;;;;0.39;58.58;96960.88;5040483;28;20193;-80
2023/02/09 10:53:52;;;;;;;29.20;17.30;;;;;;;0.61;58.85;96966.06;5053803;23;20244;-83
2023/02/09 10:56:27;;;;;;;25.00;15.87;;;;;;;0.50;59.43;96964.72;5029535;28;20302;-85
2023/02/09 10:59:02;;;;;;;28.30;16.17;;;;;;;0.54;58.49;96968.03;5020115;28;20189;-77
2023/02/09 11:01:40;;;;;;;25.63;16.67;;;;;;;0.65;58.63;96962.53;5015028;28;20194;-79
2023/02/09 11:04:20;;;;;;;29.30;17.60;;;;;;;0.42;59.41;96965.88;5009614;28;20236;-81
2023/02/09 11:06:54;;;;;;;29.07;16.00;;;;;;;0.55;58.59;96962.84;5014704;28;20189;-81
2023/02/09 11:09:27;;;;;;;27.07;16.37;;;;;;;0.74;58.89;96957.94;5017073;28;20268;-80
2023/02/09 11:11:53;;;;;;;24.10;16.10;;;;;;;0.83;58.28;96956.78;5019806;28;20209;-81
2023/02/09 11:14:19;;;;;;;29.87;16.93;;;;;;;0.75;58.44;96949.38;5028808;28;20197;-79
2023/02/09 11:17:03;;;;;;;31.03;17.47;;;;;;;0.67;58.13;96951.38;5031804;28;20232;-80
2023/02/09 11:19:46;;;;;;;26.67;16.33;;;;;;;0.94;57.48;96948.72;5036044;28;20188;-80
2023/02/09 11:22:38;;;;;;;28.60;17.37;;;;;;;1.11;57.71;96948.94;5038181;28;20202;-81
2023/02/09 11:25:24;;;;;;;26.90;17.10;;;;;;;0.85;57.23;96945.59;5017807;28;20175;-80
2023/02/09 11:28:16;;;;;;;26.70;15.50;;;;;;;1.03;57.34;96941.56;5031538;28;20270;-77
2023/02/09 11:31:11;;;;;;;27.57;16.47;;;;;;;1.19;57.00;96944.38;5041221;28;20194;-79
2023/02/09 11:33:55;;;;;;;26.70;16.53;;;;;;;1.12;57.55;96943.78;5042109;28;20211;-79